Wetterdaten: Woche 13.09.10 - 19.09.10 (KW37)
Datum Zeit Temp. A. Feuchte A. Luftdruck Regen Wind Richtung Taupunkt Windchill Windben
13.09.2010 00:00 13,3 C 90 % 1021,6 hPa 0,0 l/m 0,0 km/h S-SW 11,7 C 13,3 C 0,0 km/h
13.09.2010 01:00 13,3 C 90 % 1022,1 hPa 0,0 l/m 0,0 km/h S-SW 11,7 C 13,3 C 0,0 km/h
13.09.2010 02:00 13,2 C 90 % 1022,1 hPa 0,0 l/m 0,0 km/h S-SO 11,6 C 13,2 C 0,0 km/h
13.09.2010 03:00 12,9 C 90 % 1022,1 hPa 0,0 l/m 0,0 km/h O-SO 11,3 C 12,9 C 0,0 km/h
13.09.2010 04:00 13,1 C 91 % 1022,5 hPa 0,7 l/m 0,0 km/h S-SO 11,7 C 13,1 C 0,0 km/h
13.09.2010 05:00 13,0 C 91 % 1022,5 hPa 0,4 l/m 0,0 km/h N 11,6 C 13,0 C 0,0 km/h
13.09.2010 06:00 12,9 C 91 % 1023,2 hPa 0,0 l/m 0,0 km/h N 11,5 C 12,9 C 0,0 km/h
13.09.2010 07:00 12,5 C 91 % 1023,8 hPa 0,0 l/m 0,0 km/h W-NW 11,1 C 12,5 C 0,0 km/h
13.09.2010 08:00 13,6 C 91 % 1024,1 hPa 0,0 l/m 0,0 km/h W-NW 12,2 C 13,6 C 0,0 km/h
13.09.2010 09:00 15,2 C 88 % 1024,6 hPa 0,0 l/m 0,0 km/h N 13,2 C 15,2 C 0,0 km/h
13.09.2010 10:00 15,8 C 82 % 1025,2 hPa 0,0 l/m 5,8 km/h N-NO 12,7 C 15,8 C 3,2 km/h
13.09.2010 11:00 17,1 C 69 % 1025,4 hPa 0,0 l/m 0,0 km/h N-NO 11,4 C 17,1 C 0,0 km/h
13.09.2010 12:00 20,4 C 62 % 1025,5 hPa 0,0 l/m 0,0 km/h NW 12,9 C 20,4 C 0,0 km/h
13.09.2010 13:00 22,1 C 49 % 1025,2 hPa 0,0 l/m 9,1 km/h N-NO 10,9 C 21,2 C 5,0 km/h
13.09.2010 14:00 22,3 C 51 % 1025,0 hPa 0,0 l/m 0,0 km/h NO 11,7 C 22,3 C 0,0 km/h
13.09.2010 15:00 19,9 C 52 % 1025,3 hPa 0,0 l/m 1,3 km/h NO 9,7 C 19,9 C 0,7 km/h
13.09.2010 16:00 25,6 C 38 % 1025,0 hPa 0,0 l/m 0,0 km/h N-NO 10,2 C 25,6 C 0,0 km/h
13.09.2010 17:00 25,6 C 37 % 1025,1 hPa 0,0 l/m 0,0 km/h NO 9,8 C 25,6 C 0,0 km/h
13.09.2010 18:00 25,6 C 37 % 1025,3 hPa 0,0 l/m 0,0 km/h N-NO 9,8 C 25,6 C 0,0 km/h
13.09.2010 19:00 16,6 C 61 % 1024,9 hPa 0,0 l/m 0,0 km/h NO 9,0 C 16,6 C 0,0 km/h
13.09.2010 20:00 12,2 C 79 % 1025,3 hPa 0,0 l/m 0,0 km/h O-SO 8,7 C 12,2 C 0,0 km/h
13.09.2010 21:00 10,9 C 84 % 1025,2 hPa 0,0 l/m 0,0 km/h NO 8,3 C 10,9 C 0,0 km/h
13.09.2010 22:00 10,4 C 86 % 1025,8 hPa 0,0 l/m 0,0 km/h SO 8,2 C 10,4 C 0,0 km/h
13.09.2010 23:00 9,6 C 87 % 1025,7 hPa 0,0 l/m 0,0 km/h O-NO 7,5 C 9,6 C 0,0 km/h
14.09.2010 00:00 9,0 C 88 % 1025,9 hPa 0,0 l/m 0,0 km/h O-NO 7,1 C 9,0 C 0,0 km/h
14.09.2010 01:00 8,7 C 89 % 1025,5 hPa 0,0 l/m 0,0 km/h O-NO 7,0 C 8,7 C 0,0 km/h
14.09.2010 02:00 8,1 C 90 % 1025,2 hPa 0,0 l/m 0,0 km/h O-NO 6,6 C 8,1 C 0,0 km/h
14.09.2010 03:00 7,6 C 90 % 1025,1 hPa 0,0 l/m 0,0 km/h NO 6,1 C 7,6 C 0,0 km/h
14.09.2010 04:00 7,4 C 90 % 1024,9 hPa 0,0 l/m 0,0 km/h O-SO 5,9 C 7,4 C 0,0 km/h
14.09.2010 05:00 7,1 C 90 % 1024,9 hPa 0,0 l/m 0,0 km/h NO 5,6 C 7,1 C 0,0 km/h
14.09.2010 06:00 7,6 C 91 % 1024,5 hPa 0,0 l/m 0,0 km/h SO 6,2 C 7,6 C 0,0 km/h
14.09.2010 07:00 8,9 C 91 % 1024,7 hPa 0,0 l/m 7,8 km/h O-SO 7,5 C 7,8 C 4,3 km/h
14.09.2010 08:00 10,3 C 90 % 1024,7 hPa 0,0 l/m 0,0 km/h S-SO 8,7 C 10,3 C 0,0 km/h
14.09.2010 09:00 12,9 C 88 % 1024,5 hPa 0,0 l/m 0,0 km/h SO 11,0 C 12,9 C 0,0 km/h
14.09.2010 10:00 19,7 C 67 % 1024,6 hPa 0,0 l/m 7,1 km/h S-SW 13,4 C 19,4 C 4,0 km/h
14.09.2010 11:00 20,1 C 60 % 1024,0 hPa 0,0 l/m 9,1 km/h W-SW 12,1 C 19,1 C 5,0 km/h
14.09.2010 12:00 20,5 C 58 % 1023,8 hPa 0,0 l/m 20,7 km/h SW 11,9 C 16,7 C 11,5 km/h
14.09.2010 13:00 20,9 C 54 % 1022,7 hPa 0,0 l/m 13,6 km/h S-SW 11,2 C 18,7 C 7,6 km/h
14.09.2010 14:00 21,8 C 56 % 1022,3 hPa 0,0 l/m 14,3 km/h W-SW 12,6 C 19,6 C 7,9 km/h
14.09.2010 15:00 23,6 C 52 % 1021,6 hPa 0,0 l/m 24,0 km/h SW 13,2 C 20,4 C 13,3 km/h
14.09.2010 16:00 23,4 C 51 % 1020,7 hPa 0,0 l/m 22,0 km/h W-SW 12,7 C 20,3 C 12,2 km/h
14.09.2010 17:00 21,4 C 56 % 1020,3 hPa 0,0 l/m 18,8 km/h SW 12,3 C 18,2 C 10,4 km/h
14.09.2010 18:00 20,1 C 60 % 1019,8 hPa 0,0 l/m 7,1 km/h SW 12,1 C 19,8 C 4,0 km/h
14.09.2010 19:00 18,1 C 65 % 1019,3 hPa 0,0 l/m 14,9 km/h W-SW 11,4 C 15,0 C 8,3 km/h
14.09.2010 20:00 17,1 C 71 % 1019,5 hPa 0,0 l/m 9,1 km/h S 11,8 C 15,8 C 5,0 km/h
14.09.2010 21:00 16,9 C 68 % 1019,5 hPa 0,0 l/m 18,8 km/h S 11,0 C 12,5 C 10,4 km/h
14.09.2010 22:00 16,1 C 68 % 1019,4 hPa 0,0 l/m 7,8 km/h S-SO 10,2 C 15,4 C 4,3 km/h
14.09.2010 23:00 15,2 C 72 % 1019,0 hPa 0,0 l/m 0,0 km/h S 10,2 C 15,2 C 0,0 km/h
15.09.2010 00:00 14,9 C 73 % 1018,6 hPa 0,0 l/m 13,6 km/h S 10,1 C 11,6 C 7,6 km/h
15.09.2010 01:00 14,8 C 75 % 1018,2 hPa 0,0 l/m 0,0 km/h S 10,4 C 14,8 C 0,0 km/h
15.09.2010 02:00 14,4 C 77 % 1017,5 hPa 0,0 l/m 2,6 km/h S-SW 10,4 C 14,4 C 1,4 km/h
15.09.2010 03:00 14,4 C 75 % 1016,8 hPa 0,0 l/m 15,6 km/h S 10,0 C 10,3 C 8,6 km/h
15.09.2010 04:00 13,8 C 75 % 1016,2 hPa 0,0 l/m 2,6 km/h S-SW 9,4 C 13,8 C 1,4 km/h
15.09.2010 05:00 14,6 C 71 % 1015,9 hPa 0,0 l/m 20,7 km/h S-SW 9,4 C 9,1 C 11,5 km/h
15.09.2010 06:00 15,4 C 68 % 1015,0 hPa 0,0 l/m 0,0 km/h W-SW 9,5 C 15,4 C 0,0 km/h
15.09.2010 07:00 15,1 C 69 % 1015,0 hPa 0,0 l/m 7,8 km/h S-SW 9,5 C 14,3 C 4,3 km/h
15.09.2010 08:00 16,3 C 66 % 1015,2 hPa 0,0 l/m 24,0 km/h S-SW 9,9 C 10,6 C 13,3 km/h
15.09.2010 09:00 16,9 C 65 % 1014,8 hPa 0,0 l/m 25,9 km/h S-SW 10,3 C 11,0 C 14,4 km/h
15.09.2010 10:00 16,8 C 65 % 1014,6 hPa 0,0 l/m 52,5 km/h SW 10,2 C 8,0 C 29,2 km/h
15.09.2010 11:00 16,9 C 65 % 1014,9 hPa 0,0 l/m 22,0 km/h S 10,3 C 11,8 C 12,2 km/h
15.09.2010 12:00 16,1 C 72 % 1014,3 hPa 0,0 l/m 20,1 km/h S 11,0 C 11,1 C 11,2 km/h
15.09.2010 13:00 16,6 C 69 % 1013,9 hPa 0,0 l/m 3,9 km/h S-SW 10,9 C 16,6 C 2,2 km/h
15.09.2010 14:00 16,7 C 68 % 1013,2 hPa 0,0 l/m 14,9 km/h W 10,8 C 13,3 C 8,3 km/h
15.09.2010 15:00 16,9 C 70 % 1013,1 hPa 0,0 l/m 4,5 km/h SW 11,4 C 16,9 C 2,5 km/h
15.09.2010 16:00 15,9 C 70 % 1012,8 hPa 0,0 l/m 24,0 km/h S-SW 10,4 C 10,0 C 13,3 km/h
15.09.2010 17:00 16,3 C 69 % 1012,3 hPa 0,0 l/m 27,9 km/h W-SW 10,6 C 9,9 C 15,5 km/h
15.09.2010 18:00 16,1 C 70 % 1012,3 hPa 0,0 l/m 15,6 km/h W-SW 10,6 C 12,3 C 8,6 km/h
15.09.2010 19:00 15,5 C 75 % 1012,1 hPa 0,0 l/m 22,0 km/h W 11,1 C 9,9 C 12,2 km/h
15.09.2010 20:00 14,3 C 80 % 1012,5 hPa 0,0 l/m 22,0 km/h SW 10,9 C 8,3 C 12,2 km/h
15.09.2010 21:00 13,6 C 83 % 1013,0 hPa 0,0 l/m 42,8 km/h SW 10,8 C 3,9 C 23,8 km/h
15.09.2010 22:00 13,5 C 84 % 1012,9 hPa 0,0 l/m 25,9 km/h S-SW 10,8 C 6,4 C 14,4 km/h
15.09.2010 23:00 13,4 C 85 % 1012,9 hPa 0,0 l/m 16,2 km/h S-SW 10,9 C 8,8 C 9,0 km/h
16.09.2010 00:00 13,3 C 85 % 1012,8 hPa 0,0 l/m 18,1 km/h S-SO 10,8 C 8,1 C 10,1 km/h
16.09.2010 01:00 12,8 C 86 % 1012,0 hPa 0,0 l/m 21,4 km/h S-SW 10,5 C 6,5 C 11,9 km/h
16.09.2010 02:00 12,6 C 87 % 1012,0 hPa 0,0 l/m 8,4 km/h W 10,5 C 11,3 C 4,7 km/h
16.09.2010 03:00 13,1 C 87 % 1011,9 hPa 0,0 l/m 9,7 km/h W-SW 11,0 C 11,2 C 5,4 km/h
16.09.2010 04:00 12,5 C 88 % 1011,9 hPa 0,0 l/m 7,1 km/h NW 10,6 C 12,0 C 4,0 km/h
16.09.2010 05:00 12,8 C 88 % 1012,3 hPa 0,0 l/m 3,9 km/h SW 10,9 C 12,8 C 2,2 km/h
16.09.2010 06:00 12,2 C 90 % 1012,4 hPa 0,0 l/m 0,0 km/h SW 10,6 C 12,2 C 0,0 km/h
16.09.2010 07:00 11,8 C 90 % 1012,7 hPa 0,0 l/m 0,0 km/h W 10,2 C 11,8 C 0,0 km/h
16.09.2010 08:00 12,9 C 90 % 1013,0 hPa 0,0 l/m 0,0 km/h SW 11,3 C 12,9 C 0,0 km/h
16.09.2010 09:00 15,5 C 81 % 1013,2 hPa 0,0 l/m 16,2 km/h SW 12,3 C 11,4 C 9,0 km/h
16.09.2010 10:00 18,4 C 71 % 1013,5 hPa 0,0 l/m 7,1 km/h W-SW 13,0 C 18,1 C 4,0 km/h
16.09.2010 11:00 20,1 C 56 % 1013,2 hPa 0,0 l/m 12,3 km/h W 11,0 C 18,1 C 6,8 km/h
16.09.2010 12:00 16,2 C 64 % 1013,2 hPa 0,0 l/m 3,2 km/h W-SW 9,4 C 16,2 C 1,8 km/h
16.09.2010 13:00 19,4 C 54 % 1012,9 hPa 0,0 l/m 23,3 km/h W 9,8 C 14,8 C 13,0 km/h
16.09.2010 14:00 18,8 C 53 % 1012,5 hPa 0,0 l/m 4,5 km/h W 9,0 C 18,8 C 2,5 km/h
16.09.2010 15:00 19,9 C 51 % 1011,9 hPa 0,0 l/m 4,5 km/h W 9,5 C 19,9 C 2,5 km/h
16.09.2010 16:00 21,2 C 45 % 1011,7 hPa 0,0 l/m 0,0 km/h N-NO 8,8 C 21,2 C 0,0 km/h
16.09.2010 17:00 18,1 C 53 % 1011,5 hPa 0,0 l/m 0,0 km/h N-NO 8,4 C 18,1 C 0,0 km/h
16.09.2010 18:00 16,6 C 59 % 1011,0 hPa 0,0 l/m 0,0 km/h N-NO 8,6 C 16,6 C 0,0 km/h
16.09.2010 19:00 13,9 C 74 % 1011,0 hPa 0,0 l/m 0,0 km/h O 9,3 C 13,9 C 0,0 km/h
16.09.2010 20:00 11,8 C 80 % 1011,6 hPa 0,0 l/m 0,0 km/h N-NO 8,5 C 11,8 C 0,0 km/h
16.09.2010 21:00 11,3 C 82 % 1011,7 hPa 0,0 l/m 0,0 km/h O-SO 8,3 C 11,3 C 0,0 km/h
16.09.2010 22:00 10,9 C 84 % 1011,9 hPa 0,0 l/m 0,0 km/h O-NO 8,3 C 10,9 C 0,0 km/h
16.09.2010 23:00 10,6 C 86 % 1011,7 hPa 0,0 l/m 0,0 km/h SO 8,4 C 10,6 C 0,0 km/h
17.09.2010 00:00 10,4 C 87 % 1011,6 hPa 0,0 l/m 0,0 km/h O-NO 8,3 C 10,4 C 0,0 km/h
17.09.2010 01:00 9,4 C 88 % 1011,7 hPa 0,0 l/m 0,0 km/h SO 7,5 C 9,4 C 0,0 km/h
17.09.2010 02:00 9,3 C 90 % 1011,7 hPa 0,0 l/m 0,0 km/h SO 7,7 C 9,3 C 0,0 km/h
17.09.2010 03:00 9,9 C 90 % 1011,9 hPa 0,0 l/m 0,0 km/h O-SO 8,3 C 9,9 C 0,0 km/h
17.09.2010 04:00 8,8 C 90 % 1011,6 hPa 0,0 l/m 0,0 km/h O-NO 7,3 C 8,8 C 0,0 km/h
17.09.2010 05:00 8,4 C 91 % 1012,0 hPa 0,0 l/m 0,0 km/h N-NO 7,0 C 8,4 C 0,0 km/h
17.09.2010 06:00 8,3 C 91 % 1012,4 hPa 0,0 l/m 0,0 km/h NO 6,9 C 8,3 C 0,0 km/h
17.09.2010 07:00 8,3 C 91 % 1012,6 hPa 0,0 l/m 0,0 km/h O-SO 6,9 C 8,3 C 0,0 km/h
17.09.2010 08:00 9,9 C 91 % 1013,2 hPa 0,0 l/m 0,0 km/h S-SO 8,5 C 9,9 C 0,0 km/h
17.09.2010 09:00 13,9 C 86 % 1013,3 hPa 0,0 l/m 0,0 km/h N 11,6 C 13,9 C 0,0 km/h
17.09.2010 10:00 16,9 C 75 % 1014,0 hPa 0,0 l/m 0,0 km/h SW 12,4 C 16,9 C 0,0 km/h
17.09.2010 11:00 21,4 C 57 % 1013,9 hPa 0,0 l/m 3,9 km/h W-NW 12,5 C 21,4 C 2,2 km/h
17.09.2010 12:00 20,3 C 54 % 1013,8 hPa 0,0 l/m 0,0 km/h W-NW 10,7 C 20,3 C 0,0 km/h
17.09.2010 13:00 20,3 C 51 % 1013,9 hPa 0,0 l/m 0,0 km/h SO 9,8 C 20,3 C 0,0 km/h
17.09.2010 14:00 21,9 C 44 % 1013,5 hPa 0,0 l/m 3,9 km/h SO 9,1 C 21,9 C 2,2 km/h
17.09.2010 15:00 24,1 C 39 % 1013,2 hPa 0,0 l/m 0,0 km/h W 9,3 C 24,1 C 0,0 km/h
17.09.2010 16:00 21,5 C 42 % 1013,1 hPa 0,0 l/m 0,0 km/h W-SW 8,0 C 21,5 C 0,0 km/h
17.09.2010 17:00 24,3 C 36 % 1012,8 hPa 0,0 l/m 0,0 km/h O-NO 8,3 C 24,3 C 0,0 km/h
17.09.2010 18:00 19,3 C 45 % 1013,1 hPa 0,0 l/m 0,0 km/h S 7,1 C 19,3 C 0,0 km/h
17.09.2010 19:00 13,5 C 67 % 1013,7 hPa 0,0 l/m 0,0 km/h O-SO 7,5 C 13,5 C 0,0 km/h
17.09.2010 20:00 12,0 C 75 % 1014,4 hPa 0,0 l/m 0,0 km/h SO 7,7 C 12,0 C 0,0 km/h
17.09.2010 21:00 12,1 C 79 % 1015,2 hPa 0,0 l/m 0,0 km/h O-NO 8,6 C 12,1 C 0,0 km/h
17.09.2010 22:00 11,8 C 82 % 1015,6 hPa 0,0 l/m 0,0 km/h SO 8,8 C 11,8 C 0,0 km/h
17.09.2010 23:00 9,6 C 86 % 1015,8 hPa 0,0 l/m 0,0 km/h NO 7,4 C 9,6 C 0,0 km/h
18.09.2010 00:00 8,8 C 88 % 1015,7 hPa 0,0 l/m 0,0 km/h NO 6,9 C 8,8 C 0,0 km/h
18.09.2010 01:00 7,8 C 89 % 1016,1 hPa 0,0 l/m 0,0 km/h NO 6,1 C 7,8 C 0,0 km/h
18.09.2010 02:00 7,3 C 90 % 1015,8 hPa 0,0 l/m 0,0 km/h O-SO 5,8 C 7,3 C 0,0 km/h
18.09.2010 03:00 6,8 C 90 % 1015,9 hPa 0,0 l/m 0,0 km/h SO 5,3 C 6,8 C 0,0 km/h
18.09.2010 04:00 6,1 C 90 % 1015,6 hPa 0,0 l/m 0,0 km/h O-SO 4,6 C 6,1 C 0,0 km/h
18.09.2010 05:00 5,6 C 91 % 1015,7 hPa 0,0 l/m 0,0 km/h S-SO 4,2 C 5,6 C 0,0 km/h
18.09.2010 06:00 5,3 C 91 % 1016,0 hPa 0,0 l/m 0,0 km/h N 4,0 C 5,3 C 0,0 km/h
18.09.2010 07:00 5,3 C 91 % 1016,1 hPa 0,0 l/m 0,0 km/h NO 4,0 C 5,3 C 0,0 km/h
18.09.2010 08:00 6,4 C 91 % 1016,1 hPa 0,0 l/m 0,0 km/h O-SO 5,0 C 6,4 C 0,0 km/h
18.09.2010 09:00 12,1 C 88 % 1016,2 hPa 0,0 l/m 0,0 km/h W-SW 10,2 C 12,1 C 0,0 km/h
18.09.2010 10:00 17,1 C 67 % 1016,3 hPa 0,0 l/m 0,0 km/h NW 10,9 C 17,1 C 0,0 km/h
18.09.2010 11:00 20,2 C 54 % 1016,2 hPa 0,0 l/m 0,0 km/h NO 10,6 C 20,2 C 0,0 km/h
18.09.2010 12:00 21,0 C 47 % 1015,8 hPa 0,0 l/m 0,0 km/h N-NO 9,3 C 21,0 C 0,0 km/h
18.09.2010 13:00 21,6 C 45 % 1015,4 hPa 0,0 l/m 24,0 km/h N 9,2 C 17,7 C 13,3 km/h
18.09.2010 14:00 19,3 C 50 % 1015,0 hPa 0,0 l/m 16,8 km/h NW 8,6 C 16,0 C 9,4 km/h
18.09.2010 15:00 18,1 C 47 % 1014,8 hPa 0,0 l/m 0,0 km/h N 6,6 C 18,1 C 0,0 km/h
18.09.2010 16:00 18,8 C 46 % 1014,9 hPa 0,0 l/m 1,9 km/h N-NO 6,9 C 18,8 C 1,1 km/h
18.09.2010 17:00 18,2 C 47 % 1015,0 hPa 0,0 l/m 0,0 km/h N 6,7 C 18,2 C 0,0 km/h
18.09.2010 18:00 19,7 C 46 % 1015,2 hPa 0,0 l/m 0,0 km/h N 7,8 C 19,7 C 0,0 km/h
18.09.2010 19:00 14,6 C 56 % 1015,4 hPa 0,0 l/m 0,0 km/h N 5,9 C 14,6 C 0,0 km/h
18.09.2010 20:00 11,2 C 72 % 1015,9 hPa 0,0 l/m 0,0 km/h N 6,3 C 11,2 C 0,0 km/h
18.09.2010 21:00 8,9 C 80 % 1016,5 hPa 0,0 l/m 0,0 km/h NO 5,6 C 8,9 C 0,0 km/h
18.09.2010 22:00 7,8 C 84 % 1017,0 hPa 0,0 l/m 0,0 km/h O-NO 5,3 C 7,8 C 0,0 km/h
18.09.2010 23:00 6,8 C 87 % 1017,0 hPa 0,0 l/m 0,0 km/h O-NO 4,8 C 6,8 C 0,0 km/h
19.09.2010 00:00 6,2 C 88 % 1016,7 hPa 0,0 l/m 0,0 km/h N-NO 4,4 C 6,2 C 0,0 km/h
19.09.2010 01:00 5,6 C 89 % 1016,8 hPa 0,0 l/m 0,0 km/h NO 3,9 C 5,6 C 0,0 km/h
19.09.2010 02:00 5,2 C 89 % 1016,6 hPa 0,0 l/m 0,0 km/h NO 3,5 C 5,2 C 0,0 km/h
19.09.2010 03:00 5,1 C 90 % 1016,7 hPa 0,0 l/m 0,0 km/h NO 3,6 C 5,1 C 0,0 km/h
19.09.2010 04:00 4,7 C 90 % 1016,8 hPa 0,0 l/m 0,0 km/h NO 3,2 C 4,7 C 0,0 km/h
19.09.2010 05:00 4,2 C 90 % 1017,0 hPa 0,0 l/m 0,0 km/h NO 2,7 C 4,2 C 0,0 km/h
19.09.2010 06:00 3,6 C 90 % 1017,2 hPa 0,0 l/m 0,0 km/h O-NO 2,1 C 3,6 C 0,0 km/h
19.09.2010 07:00 3,3 C 91 % 1017,7 hPa 0,0 l/m 0,0 km/h O-NO 2,0 C 3,3 C 0,0 km/h
19.09.2010 08:00 4,8 C 91 % 1017,9 hPa 0,0 l/m 0,0 km/h W 3,5 C 4,8 C 0,0 km/h
19.09.2010 09:00 11,7 C 86 % 1018,2 hPa 0,0 l/m 0,0 km/h SO 9,4 C 11,7 C 0,0 km/h
19.09.2010 10:00 16,1 C 66 % 1018,7 hPa 0,0 l/m 0,0 km/h S-SO 9,7 C 16,1 C 0,0 km/h
19.09.2010 11:00 19,3 C 55 % 1018,7 hPa 0,0 l/m 0,0 km/h W-SW 10,0 C 19,3 C 0,0 km/h
19.09.2010 12:00 19,8 C 52 % 1018,4 hPa 0,0 l/m 8,4 km/h NO 9,7 C 19,0 C 4,7 km/h
19.09.2010 13:00 20,0 C 48 % 1017,7 hPa 0,0 l/m 0,0 km/h W-NW 8,7 C 20,0 C 0,0 km/h
19.09.2010 14:00 20,7 C 47 % 1017,3 hPa 0,0 l/m 0,0 km/h NW 9,0 C 20,7 C 0,0 km/h
19.09.2010 15:00 23,6 C 38 % 1016,9 hPa 0,0 l/m 0,0 km/h W 8,4 C 23,6 C 0,0 km/h
19.09.2010 16:00 25,3 C 32 % 1016,7 hPa 0,0 l/m 12,3 km/h N-NO 7,4 C 24,1 C 6,8 km/h
19.09.2010 17:00 27,2 C 30 % 1016,3 hPa 0,0 l/m 1,9 km/h N 8,1 C 27,2 C 1,1 km/h
19.09.2010 18:00 23,4 C 33 % 1016,5 hPa 0,0 l/m 0,0 km/h NO 6,2 C 23,4 C 0,0 km/h
19.09.2010 19:00 14,4 C 59 % 1016,7 hPa 0,0 l/m 0,0 km/h NO 6,5 C 14,4 C 0,0 km/h
19.09.2010 20:00 10,7 C 74 % 1017,1 hPa 0,0 l/m 0,0 km/h NO 6,3 C 10,7 C 0,0 km/h
19.09.2010 21:00 9,3 C 80 % 1017,6 hPa 0,0 l/m 0,0 km/h N-NO 6,0 C 9,3 C 0,0 km/h
19.09.2010 22:00 8,5 C 83 % 1017,4 hPa 0,0 l/m 0,0 km/h NO 5,8 C 8,5 C 0,0 km/h
19.09.2010 23:00 8,0 C 84 % 1017,5 hPa 0,0 l/m 0,0 km/h SO 5,5 C 8,0 C 0,0 km/h
Min-Datum _ 19.09.10 19.09.10 16.09.10 - 13.09.10 - 19.09.10 19.09.10 13.09.10
_ Min-Zeit 07:30 17:30 18:30 - 00:30 - 07:30 07:30 00:30
Minimum _ 3,3 C 30 % 1011,0 hPa - 0,0 km/h - 2,0 C 3,3 C 0,0 km/h
Max-Datum _ 19.09.10 13.09.10 14.09.10 13.09.10 15.09.10 - 14.09.10 19.09.10 15.09.10
_ Max-Zeit 17:30 04:30 00:30 04:30 10:30 - 10:30 17:30 10:30
Maximum _ 27,2 C 91 % 1025,9 hPa 0,7 l/m 52,5 km/h
SW
- 13,4 C 27,2 C 29,2 km/h
SW
Durchschnitt _ 14,4 C 73 % 1017,2 hPa #1,1 l/m 5,1 km/h NO 8,9 C 13,4 C 2,8 km/h